sensor_id;sensor_type;location;lat;lon;timestamp;temperature;humidity
53904;DHT22;39812;52.430;16.936;2022-11-20T00:01:12;-0.70;99.90
53904;DHT22;39812;52.430;16.936;2022-11-20T00:03:38;-0.80;99.90
53904;DHT22;39812;52.430;16.936;2022-11-20T00:06:06;-0.70;99.90
53904;DHT22;39812;52.430;16.936;2022-11-20T00:08:31;-0.80;99.90
53904;DHT22;39812;52.430;16.936;2022-11-20T00:10:57;-0.70;99.90
53904;DHT22;39812;52.430;16.936;2022-11-20T00:13:23;-0.80;99.90
53904;DHT22;39812;52.430;16.936;2022-11-20T00:15:48;-0.70;99.90
53904;DHT22;39812;52.430;16.936;2022-11-20T00:18:21;-0.70;99.90
53904;DHT22;39812;52.430;16.936;2022-11-20T00:20:47;-0.70;99.90
53904;DHT22;39812;52.430;16.936;2022-11-20T00:23:12;-0.70;99.90
53904;DHT22;39812;52.430;16.936;2022-11-20T00:25:37;-0.60;99.90
53904;DHT22;39812;52.430;16.936;2022-11-20T00:28:03;-0.70;99.90
53904;DHT22;39812;52.430;16.936;2022-11-20T00:30:28;-0.70;99.90
53904;DHT22;39812;52.430;16.936;2022-11-20T00:32:56;-0.80;99.90
53904;DHT22;39812;52.430;16.936;2022-11-20T00:35:22;-0.80;99.90
53904;DHT22;39812;52.430;16.936;2022-11-20T00:37:47;-0.80;99.90
53904;DHT22;39812;52.430;16.936;2022-11-20T00:40:13;-0.90;99.90
53904;DHT22;39812;52.430;16.936;2022-11-20T00:42:38;-0.90;99.90
53904;DHT22;39812;52.430;16.936;2022-11-20T00:45:04;-0.90;99.90
53904;DHT22;39812;52.430;16.936;2022-11-20T00:47:30;-0.80;99.90
53904;DHT22;39812;52.430;16.936;2022-11-20T00:49:55;-0.80;99.90
53904;DHT22;39812;52.430;16.936;2022-11-20T00:52:21;-0.80;99.90
53904;DHT22;39812;52.430;16.936;2022-11-20T00:54:46;-0.90;99.90
53904;DHT22;39812;52.430;16.936;2022-11-20T00:57:11;-0.80;99.90
53904;DHT22;39812;52.430;16.936;2022-11-20T00:59:37;-0.80;99.90
53904;DHT22;39812;52.430;16.936;2022-11-20T01:02:02;-0.90;99.90
53904;DHT22;39812;52.430;16.936;2022-11-20T01:04:28;-0.90;99.90
53904;DHT22;39812;52.430;16.936;2022-11-20T01:06:53;-0.90;99.90
53904;DHT22;39812;52.430;16.936;2022-11-20T01:09:19;-0.90;99.90
53904;DHT22;39812;52.430;16.936;2022-11-20T01:11:45;-0.90;99.90
53904;DHT22;39812;52.430;16.936;2022-11-20T01:14:18;-1.00;99.90
53904;DHT22;39812;52.430;16.936;2022-11-20T01:16:49;-1.00;99.90
53904;DHT22;39812;52.430;16.936;2022-11-20T01:19:20;-1.00;99.90
53904;DHT22;39812;52.430;16.936;2022-11-20T01:21:48;-1.00;99.90
53904;DHT22;39812;52.430;16.936;2022-11-20T01:24:15;-1.00;99.90
53904;DHT22;39812;52.430;16.936;2022-11-20T01:26:43;-1.00;99.90
53904;DHT22;39812;52.430;16.936;2022-11-20T01:29:21;-1.00;99.90
53904;DHT22;39812;52.430;16.936;2022-11-20T01:31:47;-1.00;99.90
53904;DHT22;39812;52.430;16.936;2022-11-20T01:34:15;-1.00;99.90
53904;DHT22;39812;52.430;16.936;2022-11-20T01:36:42;-1.00;99.90
53904;DHT22;39812;52.430;16.936;2022-11-20T01:39:12;-1.00;99.90
53904;DHT22;39812;52.430;16.936;2022-11-20T01:41:38;-1.00;99.90
53904;DHT22;39812;52.430;16.936;2022-11-20T01:47:17;-0.90;99.90
53904;DHT22;39812;52.430;16.936;2022-11-20T01:49:52;-1.00;99.90
53904;DHT22;39812;52.430;16.936;2022-11-20T01:52:34;-1.00;99.90
53904;DHT22;39812;52.430;16.936;2022-11-20T01:55:07;-1.00;99.90
53904;DHT22;39812;52.430;16.936;2022-11-20T01:57:34;-1.00;99.90
53904;DHT22;39812;52.430;16.936;2022-11-20T02:00:07;-1.00;99.90
53904;DHT22;39812;52.430;16.936;2022-11-20T02:02:34;-1.10;99.90
53904;DHT22;39812;52.430;16.936;2022-11-20T02:05:04;-1.10;99.90
53904;DHT22;39812;52.430;16.936;2022-11-20T02:07:32;-1.10;99.90
53904;DHT22;39812;52.430;16.936;2022-11-20T02:09:58;-1.10;99.90
53904;DHT22;39812;52.430;16.936;2022-11-20T02:12:23;-1.10;99.90
53904;DHT22;39812;52.430;16.936;2022-11-20T02:15:08;-1.10;99.90
53904;DHT22;39812;52.430;16.936;2022-11-20T02:17:33;-1.20;99.90
53904;DHT22;39812;52.430;16.936;2022-11-20T02:19:59;-1.10;99.90
53904;DHT22;39812;52.430;16.936;2022-11-20T02:22:35;-1.20;99.90
53904;DHT22;39812;52.430;16.936;2022-11-20T02:25:02;-1.20;99.90
53904;DHT22;39812;52.430;16.936;2022-11-20T02:27:29;-1.10;99.90
53904;DHT22;39812;52.430;16.936;2022-11-20T02:30:01;-1.20;99.90
53904;DHT22;39812;52.430;16.936;2022-11-20T02:32:33;-1.20;99.90
53904;DHT22;39812;52.430;16.936;2022-11-20T02:37:44;-1.20;99.90
53904;DHT22;39812;52.430;16.936;2022-11-20T02:40:10;-1.20;99.90
53904;DHT22;39812;52.430;16.936;2022-11-20T02:42:37;-1.10;99.90
53904;DHT22;39812;52.430;16.936;2022-11-20T02:45:03;-1.20;99.90
53904;DHT22;39812;52.430;16.936;2022-11-20T02:47:29;-1.20;99.90
53904;DHT22;39812;52.430;16.936;2022-11-20T02:49:55;-1.20;99.90
53904;DHT22;39812;52.430;16.936;2022-11-20T02:52:20;-1.10;99.90
53904;DHT22;39812;52.430;16.936;2022-11-20T02:54:46;-1.10;99.90
53904;DHT22;39812;52.430;16.936;2022-11-20T02:57:11;-1.10;99.90
53904;DHT22;39812;52.430;16.936;2022-11-20T02:59:37;-1.20;99.90
53904;DHT22;39812;52.430;16.936;2022-11-20T03:02:02;-1.10;99.90
53904;DHT22;39812;52.430;16.936;2022-11-20T03:04:28;-1.10;99.90
53904;DHT22;39812;52.430;16.936;2022-11-20T03:06:53;-1.10;99.90
53904;DHT22;39812;52.430;16.936;2022-11-20T03:09:18;-1.10;99.90
53904;DHT22;39812;52.430;16.936;2022-11-20T03:11:44;-1.10;99.90
53904;DHT22;39812;52.430;16.936;2022-11-20T03:14:09;-1.10;99.90
53904;DHT22;39812;52.430;16.936;2022-11-20T03:16:35;-1.10;99.90
53904;DHT22;39812;52.430;16.936;2022-11-20T03:19:00;-1.10;99.90
53904;DHT22;39812;52.430;16.936;2022-11-20T03:21:26;-1.10;99.90
53904;DHT22;39812;52.430;16.936;2022-11-20T03:23:53;-1.10;99.90
53904;DHT22;39812;52.430;16.936;2022-11-20T03:26:22;-1.10;99.90
53904;DHT22;39812;52.430;16.936;2022-11-20T03:28:53;-1.00;99.90
53904;DHT22;39812;52.430;16.936;2022-11-20T03:31:21;-1.00;99.90
53904;DHT22;39812;52.430;16.936;2022-11-20T03:33:47;-1.10;99.90
53904;DHT22;39812;52.430;16.936;2022-11-20T03:36:14;-1.10;99.90
53904;DHT22;39812;52.430;16.936;2022-11-20T03:38:41;-1.10;99.90
53904;DHT22;39812;52.430;16.936;2022-11-20T03:41:09;-1.10;99.90
53904;DHT22;39812;52.430;16.936;2022-11-20T03:43:35;-1.10;99.90
53904;DHT22;39812;52.430;16.936;2022-11-20T03:46:01;-1.10;99.90
53904;DHT22;39812;52.430;16.936;2022-11-20T03:48:27;-1.10;99.90
53904;DHT22;39812;52.430;16.936;2022-11-20T03:50:53;-1.10;99.90
53904;DHT22;39812;52.430;16.936;2022-11-20T03:53:31;-1.10;99.90
53904;DHT22;39812;52.430;16.936;2022-11-20T03:55:56;-1.10;99.90
53904;DHT22;39812;52.430;16.936;2022-11-20T03:58:21;-1.00;99.90
53904;DHT22;39812;52.430;16.936;2022-11-20T04:00:47;-1.00;99.90
53904;DHT22;39812;52.430;16.936;2022-11-20T04:03:12;-1.00;99.90
53904;DHT22;39812;52.430;16.936;2022-11-20T04:05:38;-1.00;99.90
53904;DHT22;39812;52.430;16.936;2022-11-20T04:08:03;-1.00;99.90
53904;DHT22;39812;52.430;16.936;2022-11-20T04:10:29;-0.90;99.90
53904;DHT22;39812;52.430;16.936;2022-11-20T04:12:54;-0.90;99.90
53904;DHT22;39812;52.430;16.936;2022-11-20T04:15:20;-0.90;99.90
53904;DHT22;39812;52.430;16.936;2022-11-20T04:17:45;-0.90;99.90
53904;DHT22;39812;52.430;16.936;2022-11-20T04:20:11;-0.90;99.90
53904;DHT22;39812;52.430;16.936;2022-11-20T04:22:37;-0.90;99.90
53904;DHT22;39812;52.430;16.936;2022-11-20T04:25:02;-0.90;99.90
53904;DHT22;39812;52.430;16.936;2022-11-20T04:27:28;-0.90;99.90
53904;DHT22;39812;52.430;16.936;2022-11-20T04:29:55;-0.90;99.90
53904;DHT22;39812;52.430;16.936;2022-11-20T04:32:20;-0.90;99.90
53904;DHT22;39812;52.430;16.936;2022-11-20T04:34:46;-0.90;99.90
53904;DHT22;39812;52.430;16.936;2022-11-20T04:37:11;-0.90;99.90
53904;DHT22;39812;52.430;16.936;2022-11-20T04:39:37;-0.90;99.90
53904;DHT22;39812;52.430;16.936;2022-11-20T04:42:02;-0.70;99.90
53904;DHT22;39812;52.430;16.936;2022-11-20T04:44:46;-0.80;99.90
53904;DHT22;39812;52.430;16.936;2022-11-20T04:47:12;-0.80;99.90
53904;DHT22;39812;52.430;16.936;2022-11-20T04:49:37;-0.80;99.90
53904;DHT22;39812;52.430;16.936;2022-11-20T04:52:02;-0.90;99.90
53904;DHT22;39812;52.430;16.936;2022-11-20T04:54:28;-0.90;99.90
53904;DHT22;39812;52.430;16.936;2022-11-20T04:56:53;-0.90;99.90
53904;DHT22;39812;52.430;16.936;2022-11-20T04:59:19;-0.90;99.90
53904;DHT22;39812;52.430;16.936;2022-11-20T05:01:44;-0.80;99.90
53904;DHT22;39812;52.430;16.936;2022-11-20T05:04:10;-0.80;99.90
53904;DHT22;39812;52.430;16.936;2022-11-20T05:06:36;-0.80;99.90
53904;DHT22;39812;52.430;16.936;2022-11-20T05:09:01;-0.80;99.90
53904;DHT22;39812;52.430;16.936;2022-11-20T05:11:27;-0.80;99.90
53904;DHT22;39812;52.430;16.936;2022-11-20T05:13:58;-0.90;99.90
53904;DHT22;39812;52.430;16.936;2022-11-20T05:16:24;-0.90;99.90
53904;DHT22;39812;52.430;16.936;2022-11-20T05:18:52;-0.80;99.90
53904;DHT22;39812;52.430;16.936;2022-11-20T05:21:19;-0.80;99.90
53904;DHT22;39812;52.430;16.936;2022-11-20T05:23:45;-0.80;99.90
53904;DHT22;39812;52.430;16.936;2022-11-20T05:26:19;-0.90;99.90
53904;DHT22;39812;52.430;16.936;2022-11-20T05:28:45;-0.90;99.90
53904;DHT22;39812;52.430;16.936;2022-11-20T05:31:13;-0.80;99.90
53904;DHT22;39812;52.430;16.936;2022-11-20T05:33:43;-0.90;99.90
53904;DHT22;39812;52.430;16.936;2022-11-20T05:36:09;-0.90;99.90
53904;DHT22;39812;52.430;16.936;2022-11-20T05:38:35;-0.80;99.90
53904;DHT22;39812;52.430;16.936;2022-11-20T05:41:09;-0.90;99.90
53904;DHT22;39812;52.430;16.936;2022-11-20T05:43:36;-0.90;99.90
53904;DHT22;39812;52.430;16.936;2022-11-20T05:46:02;-0.90;99.90
53904;DHT22;39812;52.430;16.936;2022-11-20T05:48:28;-0.90;99.90
53904;DHT22;39812;52.430;16.936;2022-11-20T05:50:53;-0.90;99.90
53904;DHT22;39812;52.430;16.936;2022-11-20T05:53:19;-0.90;99.90
53904;DHT22;39812;52.430;16.936;2022-11-20T05:55:44;-0.80;99.90
53904;DHT22;39812;52.430;16.936;2022-11-20T05:58:10;-0.80;99.90
53904;DHT22;39812;52.430;16.936;2022-11-20T06:00:35;-0.80;99.90
53904;DHT22;39812;52.430;16.936;2022-11-20T06:03:01;-0.80;99.90
53904;DHT22;39812;52.430;16.936;2022-11-20T06:05:26;-0.80;99.90
53904;DHT22;39812;52.430;16.936;2022-11-20T06:07:52;-0.70;99.90
53904;DHT22;39812;52.430;16.936;2022-11-20T06:10:17;-0.80;99.90
53904;DHT22;39812;52.430;16.936;2022-11-20T06:12:43;-0.70;99.90
53904;DHT22;39812;52.430;16.936;2022-11-20T06:15:09;-0.80;99.90
53904;DHT22;39812;52.430;16.936;2022-11-20T06:17:34;-0.70;99.90
53904;DHT22;39812;52.430;16.936;2022-11-20T06:20:00;-0.80;99.90
53904;DHT22;39812;52.430;16.936;2022-11-20T06:22:25;-0.80;99.90
53904;DHT22;39812;52.430;16.936;2022-11-20T06:24:51;-0.80;99.90
53904;DHT22;39812;52.430;16.936;2022-11-20T06:27:16;-0.80;99.90
53904;DHT22;39812;52.430;16.936;2022-11-20T06:29:42;-0.90;99.90
53904;DHT22;39812;52.430;16.936;2022-11-20T06:32:07;-0.80;99.90
53904;DHT22;39812;52.430;16.936;2022-11-20T06:34:33;-0.70;99.90
53904;DHT22;39812;52.430;16.936;2022-11-20T06:36:58;-0.70;99.90
53904;DHT22;39812;52.430;16.936;2022-11-20T06:39:24;-0.80;99.90
53904;DHT22;39812;52.430;16.936;2022-11-20T06:41:50;-0.80;99.90
53904;DHT22;39812;52.430;16.936;2022-11-20T06:44:15;-0.90;99.90
53904;DHT22;39812;52.430;16.936;2022-11-20T06:46:41;-0.90;99.90
53904;DHT22;39812;52.430;16.936;2022-11-20T06:49:06;-0.90;99.90
53904;DHT22;39812;52.430;16.936;2022-11-20T06:51:32;-0.80;99.90
53904;DHT22;39812;52.430;16.936;2022-11-20T06:53:57;-0.80;99.90
53904;DHT22;39812;52.430;16.936;2022-11-20T06:56:23;-0.70;99.90
53904;DHT22;39812;52.430;16.936;2022-11-20T06:58:48;-0.70;99.90
53904;DHT22;39812;52.430;16.936;2022-11-20T07:01:14;-0.70;99.90
53904;DHT22;39812;52.430;16.936;2022-11-20T07:03:40;-0.70;99.90
53904;DHT22;39812;52.430;16.936;2022-11-20T07:06:06;-0.60;99.90
53904;DHT22;39812;52.430;16.936;2022-11-20T07:08:33;-0.70;99.90
53904;DHT22;39812;52.430;16.936;2022-11-20T07:11:00;-0.60;99.90
53904;DHT22;39812;52.430;16.936;2022-11-20T07:13:26;-0.60;99.90
53904;DHT22;39812;52.430;16.936;2022-11-20T07:15:52;-0.60;99.90
53904;DHT22;39812;52.430;16.936;2022-11-20T07:18:17;-0.50;99.90
53904;DHT22;39812;52.430;16.936;2022-11-20T07:20:43;-0.60;99.90
53904;DHT22;39812;52.430;16.936;2022-11-20T07:23:08;-0.50;99.90
53904;DHT22;39812;52.430;16.936;2022-11-20T07:25:34;-0.50;99.90
53904;DHT22;39812;52.430;16.936;2022-11-20T07:28:00;-0.50;99.90
53904;DHT22;39812;52.430;16.936;2022-11-20T07:30:29;-0.50;99.90
53904;DHT22;39812;52.430;16.936;2022-11-20T07:32:55;-0.50;99.90
53904;DHT22;39812;52.430;16.936;2022-11-20T07:35:22;-0.50;99.90
53904;DHT22;39812;52.430;16.936;2022-11-20T07:37:48;-0.50;99.90
53904;DHT22;39812;52.430;16.936;2022-11-20T07:40:14;-0.40;99.90
53904;DHT22;39812;52.430;16.936;2022-11-20T07:42:50;-0.40;99.90
53904;DHT22;39812;52.430;16.936;2022-11-20T07:45:17;-0.50;99.90
53904;DHT22;39812;52.430;16.936;2022-11-20T07:47:43;-0.40;99.90
53904;DHT22;39812;52.430;16.936;2022-11-20T07:50:09;-0.30;99.90
53904;DHT22;39812;52.430;16.936;2022-11-20T07:52:34;-0.30;99.90
53904;DHT22;39812;52.430;16.936;2022-11-20T07:55:00;-0.20;99.90
53904;DHT22;39812;52.430;16.936;2022-11-20T07:57:25;-0.20;99.90
53904;DHT22;39812;52.430;16.936;2022-11-20T07:59:50;-0.10;99.90
53904;DHT22;39812;52.430;16.936;2022-11-20T08:02:16;-0.10;99.90
53904;DHT22;39812;52.430;16.936;2022-11-20T08:04:41;-0.20;99.90
53904;DHT22;39812;52.430;16.936;2022-11-20T08:07:07;-0.20;99.90
53904;DHT22;39812;52.430;16.936;2022-11-20T08:09:32;-0.10;99.90
53904;DHT22;39812;52.430;16.936;2022-11-20T08:11:58;-0.10;99.90
53904;DHT22;39812;52.430;16.936;2022-11-20T08:14:42;-0.10;99.90
53904;DHT22;39812;52.430;16.936;2022-11-20T08:17:07;0.20;99.90
53904;DHT22;39812;52.430;16.936;2022-11-20T08:19:33;0.10;99.90
53904;DHT22;39812;52.430;16.936;2022-11-20T08:21:58;0.20;99.90
53904;DHT22;39812;52.430;16.936;2022-11-20T08:24:24;0.20;99.90
53904;DHT22;39812;52.430;16.936;2022-11-20T08:26:51;0.10;99.90
53904;DHT22;39812;52.430;16.936;2022-11-20T08:29:17;0.10;99.90
53904;DHT22;39812;52.430;16.936;2022-11-20T08:31:42;0.10;99.90
53904;DHT22;39812;52.430;16.936;2022-11-20T08:34:08;0.20;99.90
53904;DHT22;39812;52.430;16.936;2022-11-20T08:36:34;0.20;99.90
53904;DHT22;39812;52.430;16.936;2022-11-20T08:39:00;0.20;99.90
53904;DHT22;39812;52.430;16.936;2022-11-20T08:41:25;0.40;99.90
53904;DHT22;39812;52.430;16.936;2022-11-20T08:43:57;0.30;99.90
53904;DHT22;39812;52.430;16.936;2022-11-20T08:46:25;0.30;99.90
53904;DHT22;39812;52.430;16.936;2022-11-20T08:48:51;0.40;99.90
53904;DHT22;39812;52.430;16.936;2022-11-20T08:51:17;0.30;99.90
53904;DHT22;39812;52.430;16.936;2022-11-20T08:53:43;0.30;99.90
53904;DHT22;39812;52.430;16.936;2022-11-20T08:56:09;0.30;99.90
53904;DHT22;39812;52.430;16.936;2022-11-20T08:58:38;0.50;99.90
53904;DHT22;39812;52.430;16.936;2022-11-20T09:01:04;0.70;99.90
53904;DHT22;39812;52.430;16.936;2022-11-20T09:03:30;0.80;99.90
53904;DHT22;39812;52.430;16.936;2022-11-20T09:06:05;0.70;99.90
53904;DHT22;39812;52.430;16.936;2022-11-20T09:08:31;0.80;99.90
53904;DHT22;39812;52.430;16.936;2022-11-20T09:10:57;0.80;99.90
53904;DHT22;39812;52.430;16.936;2022-11-20T09:13:25;0.80;99.90
53904;DHT22;39812;52.430;16.936;2022-11-20T09:15:59;0.90;99.90
53904;DHT22;39812;52.430;16.936;2022-11-20T09:18:25;1.00;99.90
53904;DHT22;39812;52.430;16.936;2022-11-20T09:20:51;1.00;99.90
53904;DHT22;39812;52.430;16.936;2022-11-20T09:23:17;1.00;99.90
53904;DHT22;39812;52.430;16.936;2022-11-20T09:25:43;1.00;99.90
53904;DHT22;39812;52.430;16.936;2022-11-20T09:28:09;1.10;99.90
53904;DHT22;39812;52.430;16.936;2022-11-20T09:30:35;1.10;99.90
53904;DHT22;39812;52.430;16.936;2022-11-20T09:33:00;1.10;99.90
53904;DHT22;39812;52.430;16.936;2022-11-20T09:35:26;1.20;99.90
53904;DHT22;39812;52.430;16.936;2022-11-20T09:37:52;1.40;99.90
53904;DHT22;39812;52.430;16.936;2022-11-20T09:40:23;1.40;99.90
53904;DHT22;39812;52.430;16.936;2022-11-20T09:43:10;1.40;99.90
53904;DHT22;39812;52.430;16.936;2022-11-20T09:46:07;1.70;99.90
53904;DHT22;39812;52.430;16.936;2022-11-20T09:49:03;1.90;99.90
53904;DHT22;39812;52.430;16.936;2022-11-20T09:51:46;1.90;99.90
53904;DHT22;39812;52.430;16.936;2022-11-20T09:54:19;2.00;99.90
53904;DHT22;39812;52.430;16.936;2022-11-20T09:56:50;2.20;99.90
53904;DHT22;39812;52.430;16.936;2022-11-20T09:59:32;2.30;99.90
53904;DHT22;39812;52.430;16.936;2022-11-20T10:01:59;2.50;99.90
53904;DHT22;39812;52.430;16.936;2022-11-20T10:04:26;2.30;99.90
53904;DHT22;39812;52.430;16.936;2022-11-20T10:07:03;2.10;99.90
53904;DHT22;39812;52.430;16.936;2022-11-20T10:09:37;1.70;99.90
53904;DHT22;39812;52.430;16.936;2022-11-20T10:12:36;1.60;99.90
53904;DHT22;39812;52.430;16.936;2022-11-20T10:15:12;1.70;99.90
53904;DHT22;39812;52.430;16.936;2022-11-20T10:21:15;1.90;99.90
53904;DHT22;39812;52.430;16.936;2022-11-20T10:27:09;2.20;99.90
53904;DHT22;39812;52.430;16.936;2022-11-20T10:29:45;2.20;99.90
53904;DHT22;39812;52.430;16.936;2022-11-20T10:32:19;2.20;99.90
53904;DHT22;39812;52.430;16.936;2022-11-20T10:37:32;2.10;99.90
53904;DHT22;39812;52.430;16.936;2022-11-20T10:40:40;2.10;99.90
53904;DHT22;39812;52.430;16.936;2022-11-20T10:43:17;2.00;99.90
53904;DHT22;39812;52.430;16.936;2022-11-20T10:48:16;2.40;99.90
53904;DHT22;39812;52.430;16.936;2022-11-20T10:56:50;2.30;99.90
53904;DHT22;39812;52.430;16.936;2022-11-20T10:59:42;2.40;99.90
53904;DHT22;39812;52.430;16.936;2022-11-20T11:04:46;2.40;99.90
53904;DHT22;39812;52.430;16.936;2022-11-20T11:07:30;2.30;99.90
53904;DHT22;39812;52.430;16.936;2022-11-20T11:09:59;2.30;99.90
53904;DHT22;39812;52.430;16.936;2022-11-20T11:12:26;2.30;99.90
53904;DHT22;39812;52.430;16.936;2022-11-20T11:14:56;2.10;99.90
53904;DHT22;39812;52.430;16.936;2022-11-20T11:17:27;2.20;99.90
53904;DHT22;39812;52.430;16.936;2022-11-20T11:22:23;1.90;99.90
53904;DHT22;39812;52.430;16.936;2022-11-20T11:24:52;1.90;99.90
53904;DHT22;39812;52.430;16.936;2022-11-20T11:27:18;2.20;99.90
53904;DHT22;39812;52.430;16.936;2022-11-20T11:29:44;2.20;99.90
53904;DHT22;39812;52.430;16.936;2022-11-20T11:32:20;2.20;99.90
53904;DHT22;39812;52.430;16.936;2022-11-20T11:35:04;2.30;99.90
53904;DHT22;39812;52.430;16.936;2022-11-20T11:37:37;2.20;99.90
53904;DHT22;39812;52.430;16.936;2022-11-20T11:40:04;2.00;99.90
53904;DHT22;39812;52.430;16.936;2022-11-20T11:42:30;1.80;99.90
53904;DHT22;39812;52.430;16.936;2022-11-20T11:44:59;1.80;99.90
53904;DHT22;39812;52.430;16.936;2022-11-20T11:53:08;1.60;99.90
53904;DHT22;39812;52.430;16.936;2022-11-20T11:55:45;1.70;99.90
53904;DHT22;39812;52.430;16.936;2022-11-20T11:58:50;1.50;99.90
53904;DHT22;39812;52.430;16.936;2022-11-20T12:01:41;1.40;99.90
53904;DHT22;39812;52.430;16.936;2022-11-20T12:07:00;1.30;99.90
53904;DHT22;39812;52.430;16.936;2022-11-20T12:09:35;1.30;99.90
53904;DHT22;39812;52.430;16.936;2022-11-20T12:12:10;1.30;99.90
53904;DHT22;39812;52.430;16.936;2022-11-20T12:14:42;1.30;99.90
53904;DHT22;39812;52.430;16.936;2022-11-20T12:17:11;1.40;99.90
53904;DHT22;39812;52.430;16.936;2022-11-20T12:19:37;1.50;99.90
53904;DHT22;39812;52.430;16.936;2022-11-20T12:25:24;1.50;99.90
53904;DHT22;39812;52.430;16.936;2022-11-20T12:28:04;1.60;99.90
53904;DHT22;39812;52.430;16.936;2022-11-20T12:30:33;1.50;99.90
53904;DHT22;39812;52.430;16.936;2022-11-20T12:36:11;1.30;99.90
53904;DHT22;39812;52.430;16.936;2022-11-20T12:38:50;1.40;99.90
53904;DHT22;39812;52.430;16.936;2022-11-20T12:42:08;1.40;99.90
53904;DHT22;39812;52.430;16.936;2022-11-20T12:44:42;1.40;99.90
53904;DHT22;39812;52.430;16.936;2022-11-20T12:47:44;1.50;99.90
53904;DHT22;39812;52.430;16.936;2022-11-20T12:55:47;1.70;99.90
53904;DHT22;39812;52.430;16.936;2022-11-20T12:58:27;1.80;99.90
53904;DHT22;39812;52.430;16.936;2022-11-20T13:01:21;1.60;99.90
53904;DHT22;39812;52.430;16.936;2022-11-20T13:06:58;1.50;99.90
53904;DHT22;39812;52.430;16.936;2022-11-20T13:09:24;1.40;99.90
53904;DHT22;39812;52.430;16.936;2022-11-20T13:12:02;1.40;99.90
53904;DHT22;39812;52.430;16.936;2022-11-20T13:14:39;1.30;99.90
53904;DHT22;39812;52.430;16.936;2022-11-20T13:17:13;1.30;99.90
53904;DHT22;39812;52.430;16.936;2022-11-20T13:19:39;1.30;99.90
53904;DHT22;39812;52.430;16.936;2022-11-20T13:22:07;1.30;99.90
53904;DHT22;39812;52.430;16.936;2022-11-20T13:24:33;1.30;99.90
53904;DHT22;39812;52.430;16.936;2022-11-20T13:29:34;1.20;99.90
53904;DHT22;39812;52.430;16.936;2022-11-20T13:32:06;1.20;99.90
53904;DHT22;39812;52.430;16.936;2022-11-20T13:34:33;1.10;99.90
53904;DHT22;39812;52.430;16.936;2022-11-20T13:36:59;1.20;99.90
53904;DHT22;39812;52.430;16.936;2022-11-20T13:39:35;1.30;99.90
53904;DHT22;39812;52.430;16.936;2022-11-20T13:44:43;1.40;99.90
53904;DHT22;39812;52.430;16.936;2022-11-20T13:47:24;1.40;99.90
53904;DHT22;39812;52.430;16.936;2022-11-20T13:49:51;1.30;99.90
53904;DHT22;39812;52.430;16.936;2022-11-20T13:53:00;1.40;99.90
53904;DHT22;39812;52.430;16.936;2022-11-20T13:55:53;1.30;99.90
53904;DHT22;39812;52.430;16.936;2022-11-20T13:58:24;1.30;99.90
53904;DHT22;39812;52.430;16.936;2022-11-20T14:01:19;1.30;99.90
53904;DHT22;39812;52.430;16.936;2022-11-20T14:03:45;1.20;99.90
53904;DHT22;39812;52.430;16.936;2022-11-20T14:06:17;1.20;99.90
53904;DHT22;39812;52.430;16.936;2022-11-20T14:08:50;1.10;99.90
53904;DHT22;39812;52.430;16.936;2022-11-20T14:11:20;1.10;99.90
53904;DHT22;39812;52.430;16.936;2022-11-20T14:14:00;1.10;99.90
53904;DHT22;39812;52.430;16.936;2022-11-20T14:16:28;1.10;99.90
53904;DHT22;39812;52.430;16.936;2022-11-20T14:18:55;1.10;99.90
53904;DHT22;39812;52.430;16.936;2022-11-20T14:21:25;1.10;99.90
53904;DHT22;39812;52.430;16.936;2022-11-20T14:24:03;1.00;99.90
53904;DHT22;39812;52.430;16.936;2022-11-20T14:26:29;0.90;99.90
53904;DHT22;39812;52.430;16.936;2022-11-20T14:28:55;0.90;99.90
53904;DHT22;39812;52.430;16.936;2022-11-20T14:31:24;0.80;99.90
53904;DHT22;39812;52.430;16.936;2022-11-20T14:33:54;0.90;99.90
53904;DHT22;39812;52.430;16.936;2022-11-20T14:36:22;0.80;99.90
53904;DHT22;39812;52.430;16.936;2022-11-20T14:38:48;0.80;99.90
53904;DHT22;39812;52.430;16.936;2022-11-20T14:41:23;0.80;99.90
53904;DHT22;39812;52.430;16.936;2022-11-20T14:43:57;0.80;99.90
53904;DHT22;39812;52.430;16.936;2022-11-20T14:46:23;0.80;99.90
53904;DHT22;39812;52.430;16.936;2022-11-20T14:48:51;0.80;99.90
53904;DHT22;39812;52.430;16.936;2022-11-20T14:51:32;0.80;99.90
53904;DHT22;39812;52.430;16.936;2022-11-20T14:54:10;0.90;99.90
53904;DHT22;39812;52.430;16.936;2022-11-20T14:56:36;0.80;99.90
53904;DHT22;39812;52.430;16.936;2022-11-20T14:59:02;0.80;99.90
53904;DHT22;39812;52.430;16.936;2022-11-20T15:01:30;0.80;99.90
53904;DHT22;39812;52.430;16.936;2022-11-20T15:04:07;0.80;99.90
53904;DHT22;39812;52.430;16.936;2022-11-20T15:06:34;0.70;99.90
53904;DHT22;39812;52.430;16.936;2022-11-20T15:09:12;0.70;99.90
53904;DHT22;39812;52.430;16.936;2022-11-20T15:11:38;0.70;99.90
53904;DHT22;39812;52.430;16.936;2022-11-20T15:14:05;0.70;99.90
53904;DHT22;39812;52.430;16.936;2022-11-20T15:16:32;0.70;99.90
53904;DHT22;39812;52.430;16.936;2022-11-20T15:18:57;0.70;99.90
53904;DHT22;39812;52.430;16.936;2022-11-20T15:21:23;0.60;99.90
53904;DHT22;39812;52.430;16.936;2022-11-20T15:23:49;0.60;99.90
53904;DHT22;39812;52.430;16.936;2022-11-20T15:26:21;0.60;99.90
53904;DHT22;39812;52.430;16.936;2022-11-20T15:28:48;0.60;99.90
53904;DHT22;39812;52.430;16.936;2022-11-20T15:31:17;0.60;99.90
53904;DHT22;39812;52.430;16.936;2022-11-20T15:33:42;0.60;99.90
53904;DHT22;39812;52.430;16.936;2022-11-20T15:36:09;0.60;99.90
53904;DHT22;39812;52.430;16.936;2022-11-20T15:38:34;0.60;99.90
53904;DHT22;39812;52.430;16.936;2022-11-20T15:41:00;0.60;99.90
53904;DHT22;39812;52.430;16.936;2022-11-20T15:43:26;0.50;99.90
53904;DHT22;39812;52.430;16.936;2022-11-20T15:46:03;0.50;99.90
53904;DHT22;39812;52.430;16.936;2022-11-20T15:48:55;0.60;99.90
53904;DHT22;39812;52.430;16.936;2022-11-20T15:51:31;0.60;99.90
53904;DHT22;39812;52.430;16.936;2022-11-20T15:53:57;0.60;99.90
53904;DHT22;39812;52.430;16.936;2022-11-20T15:56:23;0.60;99.90
53904;DHT22;39812;52.430;16.936;2022-11-20T15:58:49;0.60;99.90
53904;DHT22;39812;52.430;16.936;2022-11-20T16:01:17;0.60;99.90
53904;DHT22;39812;52.430;16.936;2022-11-20T16:03:43;0.60;99.90
53904;DHT22;39812;52.430;16.936;2022-11-20T16:06:09;0.70;99.90
53904;DHT22;39812;52.430;16.936;2022-11-20T16:08:34;0.70;99.90
53904;DHT22;39812;52.430;16.936;2022-11-20T16:11:00;0.70;99.90
53904;DHT22;39812;52.430;16.936;2022-11-20T16:13:26;0.70;99.90
53904;DHT22;39812;52.430;16.936;2022-11-20T16:16:33;0.60;99.90
53904;DHT22;39812;52.430;16.936;2022-11-20T16:18:59;0.60;99.90
53904;DHT22;39812;52.430;16.936;2022-11-20T16:21:25;0.60;99.90
53904;DHT22;39812;52.430;16.936;2022-11-20T16:23:58;0.60;99.90
53904;DHT22;39812;52.430;16.936;2022-11-20T16:26:23;0.60;99.90
53904;DHT22;39812;52.430;16.936;2022-11-20T16:28:49;0.60;99.90
53904;DHT22;39812;52.430;16.936;2022-11-20T16:31:17;0.50;99.90
53904;DHT22;39812;52.430;16.936;2022-11-20T16:33:52;0.60;99.90